Time;durP1;ratioP1;P1;durP2;ratioP2;P2;SDS_P1;SDS_P2;PMS_P1;PMS_P2;Temp;Humidity;BMP_temperature;BMP_pressure;BME280_temperature;BME280_humidity;BME280_pressure;Samples;Min_cycle;Max_cycle;Signal;HPM_P1;HPM_P2
2022/04/07 00:00:18;;;;;;;4.30;2.45;;;;;;;9.62;90.00;98984.84;5044851;28;20502;-72
2022/04/07 00:02:44;;;;;;;3.63;2.30;;;;;;;9.63;89.77;98991.78;5027617;28;20033;-73
2022/04/07 00:05:09;;;;;;;4.53;2.70;;;;;;;9.56;90.22;98978.50;5045563;28;20037;-74
2022/04/07 00:07:34;;;;;;;4.00;2.80;;;;;;;9.52;90.65;98979.03;5043446;28;20050;-72
2022/04/07 00:10:00;;;;;;;3.50;2.72;;;;;;;9.49;90.71;98987.31;5045600;28;20040;-72
2022/04/07 00:12:25;;;;;;;3.45;2.35;;;;;;;9.45;90.71;98991.31;5041643;28;20056;-72
2022/04/07 00:14:50;;;;;;;3.40;2.67;;;;;;;9.44;90.27;98990.50;5046020;28;20435;-73
2022/04/07 00:17:16;;;;;;;3.97;2.80;;;;;;;9.47;90.14;98995.41;5026231;28;20509;-73
2022/04/07 00:19:41;;;;;;;4.10;2.40;;;;;;;9.50;89.91;98988.94;5042766;28;20135;-73
2022/04/07 00:22:06;;;;;;;4.38;2.60;;;;;;;9.52;89.17;98979.84;5043937;28;20528;-72
2022/04/07 00:24:32;;;;;;;4.30;2.65;;;;;;;9.52;89.20;98971.94;5044035;28;20112;-74
2022/04/07 00:26:57;;;;;;;5.05;2.60;;;;;;;9.49;88.90;98969.66;5026503;28;20119;-72
2022/04/07 00:29:22;;;;;;;3.60;2.85;;;;;;;9.49;88.64;98961.75;5027770;28;20125;-72
2022/04/07 00:31:55;;;;;;;3.50;2.47;;;;;;;9.45;88.68;98949.09;5045565;28;20029;-72
2022/04/07 00:34:21;;;;;;;3.53;2.33;;;;;;;9.35;88.83;98939.66;5044071;28;20599;-72
2022/04/07 00:36:46;;;;;;;4.07;2.60;;;;;;;9.25;88.67;98922.47;5044948;28;20360;-72
2022/04/07 00:39:11;;;;;;;3.65;2.55;;;;;;;9.12;89.13;98942.38;5044071;28;20565;-72
2022/04/07 00:41:37;;;;;;;3.00;2.42;;;;;;;9.08;88.71;98943.75;5044324;28;20123;-72
2022/04/07 00:44:02;;;;;;;3.17;2.10;;;;;;;9.06;88.63;98944.94;5047481;28;20037;-72
2022/04/07 00:46:28;;;;;;;5.00;2.50;;;;;;;9.04;88.49;98937.19;5025834;28;20059;-73
2022/04/07 00:48:53;;;;;;;3.30;2.50;;;;;;;9.05;88.66;98933.53;5046146;28;20112;-73
2022/04/07 00:51:19;;;;;;;4.72;2.78;;;;;;;9.05;88.73;98938.00;5043531;28;20040;-72
2022/04/07 00:53:45;;;;;;;5.85;2.63;;;;;;;9.05;88.51;98924.81;5027170;28;20029;-72
2022/04/07 00:56:11;;;;;;;3.15;2.30;;;;;;;9.00;88.49;98912.19;5046834;28;20029;-73
2022/04/07 00:58:36;;;;;;;3.55;2.65;;;;;;;8.92;88.73;98913.09;5043913;28;20033;-72
2022/04/07 01:01:02;;;;;;;3.28;2.50;;;;;;;8.95;88.38;98922.47;5044314;28;20083;-73
2022/04/07 01:03:27;;;;;;;3.08;2.05;;;;;;;8.96;88.64;98913.53;5025591;28;20468;-73
2022/04/07 01:05:53;;;;;;;3.90;2.15;;;;;;;9.06;88.03;98913.28;5044792;28;20071;-72
2022/04/07 01:08:18;;;;;;;3.17;1.90;;;;;;;9.12;87.99;98905.44;5041781;28;20048;-73
2022/04/07 01:10:45;;;;;;;2.95;2.00;;;;;;;9.20;87.23;98899.28;5046256;28;20386;-73
2022/04/07 01:13:11;;;;;;;4.18;2.17;;;;;;;9.25;86.81;98894.28;5042719;28;20040;-72
2022/04/07 01:15:37;;;;;;;2.67;1.77;;;;;;;9.32;86.82;98897.81;5046449;28;20045;-74
2022/04/07 01:18:03;;;;;;;4.63;1.90;;;;;;;9.36;86.43;98898.25;5043719;28;20051;-72
2022/04/07 01:20:29;;;;;;;2.38;1.60;;;;;;;9.41;86.04;98884.50;5029881;28;20497;-73
2022/04/07 01:22:56;;;;;;;5.13;1.90;;;;;;;9.38;86.10;98885.69;5048475;28;20126;-74
2022/04/07 01:25:22;;;;;;;2.85;1.90;;;;;;;9.38;85.97;98887.53;5029795;28;20098;-74
2022/04/07 01:27:49;;;;;;;3.25;2.08;;;;;;;9.35;86.39;98878.97;5049899;28;20375;-73
2022/04/07 01:30:16;;;;;;;3.20;1.80;;;;;;;9.37;86.23;98881.44;5045500;28;20060;-73
2022/04/07 01:32:47;;;;;;;3.25;2.30;;;;;;;9.38;85.85;98883.06;5048747;28;20032;-73
2022/04/07 01:35:13;;;;;;;2.83;2.25;;;;;;;9.42;85.92;98870.34;5048969;28;20183;-73
2022/04/07 01:37:41;;;;;;;3.70;2.05;;;;;;;9.47;85.52;98874.03;5049890;28;20037;-73
2022/04/07 01:40:17;;;;;;;3.42;2.00;;;;;;;9.46;85.49;98863.66;5048576;28;20037;-74
2022/04/07 01:42:45;;;;;;;4.15;1.90;;;;;;;9.46;85.87;98859.22;5049493;28;20451;-73
2022/04/07 01:45:12;;;;;;;3.47;2.20;;;;;;;9.45;85.83;98864.69;5048771;28;20054;-73
2022/04/07 01:47:41;;;;;;;3.10;2.03;;;;;;;9.41;85.68;98858.94;5048503;28;20033;-73
2022/04/07 01:50:08;;;;;;;2.97;2.20;;;;;;;9.40;85.69;98851.22;5029876;28;20043;-73
2022/04/07 01:52:35;;;;;;;3.13;1.98;;;;;;;9.31;86.40;98858.44;5047981;28;20037;-73
2022/04/07 01:55:02;;;;;;;2.50;1.90;;;;;;;9.27;86.43;98851.88;5049175;28;20040;-73
2022/04/07 01:57:28;;;;;;;3.95;2.20;;;;;;;9.26;86.40;98856.34;5049704;28;20041;-73
2022/04/07 01:59:53;;;;;;;4.63;2.00;;;;;;;9.28;86.30;98859.63;5052107;28;20025;-73
2022/04/07 02:02:21;;;;;;;3.13;2.10;;;;;;;9.28;85.83;98846.44;5028468;28;20040;-72
2022/04/07 02:05:00;;;;;;;3.70;2.40;;;;;;;9.30;85.99;98843.63;5047844;28;20045;-73
2022/04/07 02:07:30;;;;;;;3.35;2.00;;;;;;;9.27;86.21;98841.31;5048550;28;20037;-73
2022/04/07 02:09:56;;;;;;;3.60;2.20;;;;;;;9.24;85.98;98836.44;5049795;28;20033;-73
2022/04/07 02:12:21;;;;;;;3.03;1.98;;;;;;;9.25;85.66;98836.25;5046119;28;20124;-73
2022/04/07 02:14:50;;;;;;;3.13;1.73;;;;;;;9.21;85.51;98837.63;5049828;28;20493;-73
2022/04/07 02:17:22;;;;;;;3.38;1.83;;;;;;;9.22;85.81;98836.59;5048125;28;20116;-73
2022/04/07 02:19:55;;;;;;;3.95;1.95;;;;;;;9.22;85.73;98833.16;5029689;28;20037;-73
2022/04/07 02:22:21;;;;;;;3.33;1.98;;;;;;;9.24;85.26;98828.50;5046713;28;20041;-73
2022/04/07 02:24:47;;;;;;;2.50;1.80;;;;;;;9.25;85.09;98823.06;5047858;28;20029;-73
2022/04/07 02:27:13;;;;;;;2.92;1.83;;;;;;;9.30;84.96;98820.69;5046374;28;20144;-73
2022/04/07 02:29:40;;;;;;;2.38;1.60;;;;;;;9.32;84.50;98813.41;5046449;28;20657;-73
2022/04/07 02:32:06;;;;;;;2.47;1.70;;;;;;;9.35;84.56;98815.66;5026580;28;20029;-73
2022/04/07 02:34:31;;;;;;;2.75;1.40;;;;;;;9.35;84.46;98823.59;5045850;28;20044;-73
2022/04/07 02:36:56;;;;;;;2.47;1.52;;;;;;;9.35;84.73;98817.50;5046330;28;20623;-73
2022/04/07 02:39:22;;;;;;;3.72;1.92;;;;;;;9.41;84.33;98810.66;5045990;28;20461;-73
2022/04/07 02:41:48;;;;;;;2.65;1.50;;;;;;;9.42;83.97;98809.66;5029546;28;20124;-73
2022/04/07 02:44:13;;;;;;;2.90;1.38;;;;;;;9.43;84.12;98809.47;5045288;28;20382;-73
2022/04/07 02:46:38;;;;;;;2.63;1.80;;;;;;;9.45;84.11;98811.91;5049643;28;20037;-73
2022/04/07 02:49:04;;;;;;;3.03;1.58;;;;;;;9.47;84.25;98797.53;5050226;28;20052;-73
2022/04/07 02:51:31;;;;;;;3.33;1.17;;;;;;;9.43;84.03;98790.19;5052747;28;20475;-74
2022/04/07 02:53:59;;;;;;;2.72;1.52;;;;;;;9.39;84.28;98779.19;5048686;28;20033;-73
2022/04/07 02:56:26;;;;;;;2.63;1.50;;;;;;;9.42;84.18;98783.28;5050273;28;20413;-73
2022/04/07 02:58:51;;;;;;;2.00;1.30;;;;;;;9.44;84.26;98775.97;5049091;28;20161;-73
2022/04/07 03:01:17;;;;;;;2.22;1.30;;;;;;;9.45;84.04;98777.63;5049182;28;20037;-73
2022/04/07 03:03:42;;;;;;;1.73;1.05;;;;;;;9.47;83.87;98767.69;5049996;28;20095;-73
2022/04/07 03:06:08;;;;;;;1.58;1.00;;;;;;;9.44;84.17;98765.41;5048586;28;20025;-74
2022/04/07 03:08:33;;;;;;;2.80;1.38;;;;;;;9.37;84.58;98765.38;5049581;28;20040;-73
2022/04/07 03:11:00;;;;;;;3.08;1.27;;;;;;;9.42;84.58;98759.53;5049147;28;20045;-73
2022/04/07 03:13:25;;;;;;;1.98;1.10;;;;;;;9.44;84.47;98763.63;5047046;28;20067;-73
2022/04/07 03:15:50;;;;;;;2.80;1.42;;;;;;;9.49;84.27;98760.41;5048364;28;20091;-73
2022/04/07 03:18:16;;;;;;;1.75;1.00;;;;;;;9.49;83.97;98761.22;5044208;28;20056;-73
2022/04/07 03:20:41;;;;;;;1.67;1.10;;;;;;;9.53;83.93;98757.22;5028752;28;20029;-72
2022/04/07 03:23:06;;;;;;;2.03;1.20;;;;;;;9.57;83.61;98763.72;5046303;28;20045;-73
2022/04/07 03:25:32;;;;;;;2.92;1.10;;;;;;;9.58;83.80;98748.72;5046256;28;20045;-73
2022/04/07 03:27:57;;;;;;;2.85;1.25;;;;;;;9.56;83.83;98735.72;5047067;28;20417;-73
2022/04/07 03:30:22;;;;;;;1.88;1.17;;;;;;;9.61;83.59;98744.91;5046021;28;20036;-73
2022/04/07 03:32:48;;;;;;;2.78;1.10;;;;;;;9.61;83.50;98747.53;5046110;28;20053;-73
2022/04/07 03:35:13;;;;;;;1.40;0.93;;;;;;;9.62;83.43;98741.25;5046901;28;20116;-74
2022/04/07 03:37:39;;;;;;;2.40;1.13;;;;;;;9.63;83.67;98737.59;5047124;28;20059;-73
2022/04/07 03:40:05;;;;;;;1.73;1.10;;;;;;;9.65;83.55;98739.03;5046411;28;20052;-73
2022/04/07 03:42:30;;;;;;;2.70;1.17;;;;;;;9.62;83.77;98725.41;5044607;28;20041;-73
2022/04/07 03:44:56;;;;;;;1.60;1.00;;;;;;;9.63;83.41;98740.22;5047449;28;20044;-73
2022/04/07 03:47:21;;;;;;;1.60;1.23;;;;;;;9.63;83.61;98729.66;5045345;28;20044;-73
2022/04/07 03:49:46;;;;;;;2.55;1.30;;;;;;;9.63;83.52;98735.78;5046603;28;20025;-72
2022/04/07 03:52:12;;;;;;;2.30;1.30;;;;;;;9.68;83.09;98733.38;5048070;28;20498;-74
2022/04/07 03:54:37;;;;;;;1.10;0.80;;;;;;;9.68;83.11;98733.38;5045614;28;20041;-73
2022/04/07 03:57:03;;;;;;;2.45;0.98;;;;;;;9.67;83.18;98730.94;5048823;28;20085;-73
2022/04/07 03:59:33;;;;;;;3.10;1.00;;;;;;;9.65;83.22;98719.75;5048250;28;20029;-73
2022/04/07 04:01:58;;;;;;;2.33;1.10;;;;;;;9.63;83.05;98733.16;5027556;28;20040;-74
2022/04/07 04:04:24;;;;;;;1.75;1.10;;;;;;;9.64;83.37;98726.03;5047581;28;20041;-74
2022/04/07 04:06:49;;;;;;;1.20;0.90;;;;;;;9.65;83.14;98727.66;5048757;28;20036;-73
2022/04/07 04:09:15;;;;;;;2.53;0.90;;;;;;;9.63;83.42;98733.16;5048034;28;20037;-73
2022/04/07 04:11:41;;;;;;;2.70;1.00;;;;;;;9.68;83.25;98735.22;5045078;28;20033;-74
2022/04/07 04:14:06;;;;;;;1.75;1.02;;;;;;;9.66;83.12;98726.69;5028528;28;20400;-72
2022/04/07 04:16:31;;;;;;;1.90;1.17;;;;;;;9.68;83.01;98724.66;5027238;28;20033;-72
2022/04/07 04:18:57;;;;;;;1.27;0.90;;;;;;;9.65;83.10;98728.47;5047348;28;20039;-73
2022/04/07 04:21:23;;;;;;;1.33;0.93;;;;;;;9.68;83.34;98720.19;5046026;28;20040;-73
2022/04/07 04:23:48;;;;;;;5.50;1.30;;;;;;;9.71;82.75;98719.00;5044871;28;20281;-72
2022/04/07 04:26:13;;;;;;;2.85;1.33;;;;;;;9.67;82.89;98708.00;5028561;28;20037;-73
2022/04/07 04:28:39;;;;;;;1.10;0.80;;;;;;;9.68;82.89;98711.47;5045334;28;20064;-73
2022/04/07 04:31:04;;;;;;;1.45;0.88;;;;;;;9.69;82.84;98708.63;5042364;28;20037;-72
2022/04/07 04:33:29;;;;;;;1.80;1.00;;;;;;;9.68;82.80;98704.38;5045411;28;20466;-73
2022/04/07 04:35:55;;;;;;;1.63;0.77;;;;;;;9.62;83.21;98707.75;5045980;28;20451;-73
2022/04/07 04:38:20;;;;;;;1.42;0.90;;;;;;;9.50;83.43;98704.81;5026762;28;20060;-73
2022/04/07 04:40:45;;;;;;;2.13;1.10;;;;;;;9.46;83.83;98697.47;5044459;28;20409;-71
2022/04/07 04:43:11;;;;;;;1.40;1.05;;;;;;;9.52;83.56;98694.88;5044246;28;20045;-71
2022/04/07 04:45:36;;;;;;;1.90;1.23;;;;;;;9.59;83.37;98687.03;5028748;28;20424;-71
2022/04/07 04:48:02;;;;;;;2.25;0.90;;;;;;;9.60;83.64;98693.13;5046592;28;20036;-72
2022/04/07 04:50:27;;;;;;;2.45;0.80;;;;;;;9.56;83.20;98697.97;5045093;28;20033;-71
2022/04/07 04:52:53;;;;;;;1.50;0.88;;;;;;;9.44;83.98;98684.47;5048219;28;20487;-72
2022/04/07 04:55:19;;;;;;;2.40;1.00;;;;;;;9.31;84.66;98686.97;5032554;28;20079;-73
2022/04/07 04:57:44;;;;;;;1.33;0.90;;;;;;;9.36;84.74;98674.03;5051996;28;20133;-72
2022/04/07 05:00:11;;;;;;;2.25;0.90;;;;;;;9.31;85.02;98685.16;5050213;28;20033;-72
2022/04/07 05:02:39;;;;;;;1.40;0.80;;;;;;;9.23;85.49;98671.28;5051344;28;20513;-74
2022/04/07 05:05:06;;;;;;;2.33;0.90;;;;;;;9.14;86.17;98668.75;5051819;28;20041;-73
2022/04/07 05:07:31;;;;;;;1.33;0.90;;;;;;;9.12;86.58;98668.13;5054916;28;20029;-73
2022/04/07 05:09:56;;;;;;;1.65;0.90;;;;;;;9.13;86.92;98664.50;5062647;28;20036;-74
2022/04/07 05:12:22;;;;;;;1.00;0.80;;;;;;;9.21;86.39;98657.47;5054088;28;20037;-74
2022/04/07 05:14:47;;;;;;;1.08;0.82;;;;;;;9.31;86.00;98648.22;5054622;28;20040;-72
2022/04/07 05:17:12;;;;;;;1.23;0.80;;;;;;;9.39;85.52;98660.50;5031873;28;20029;-72
2022/04/07 05:19:38;;;;;;;2.13;0.90;;;;;;;9.51;85.08;98637.00;5047974;28;20120;-71
2022/04/07 05:22:04;;;;;;;1.30;0.70;;;;;;;9.61;84.77;98644.63;5049507;28;20136;-71
2022/04/07 05:24:29;;;;;;;2.83;0.70;;;;;;;9.71;83.96;98630.06;5049339;28;20029;-72
2022/04/07 05:26:55;;;;;;;1.88;0.90;;;;;;;9.81;83.16;98632.38;5049195;28;20349;-72
2022/04/07 05:29:20;;;;;;;2.13;0.95;;;;;;;9.82;83.53;98627.91;5049576;28;20251;-72
2022/04/07 05:31:46;;;;;;;1.60;0.80;;;;;;;9.86;83.19;98639.72;5049664;28;20049;-72
2022/04/07 05:34:13;;;;;;;1.13;0.70;;;;;;;9.82;83.10;98649.84;5047615;28;20722;-72
2022/04/07 05:36:39;;;;;;;2.83;0.80;;;;;;;9.87;83.10;98644.81;5048546;28;20040;-72
2022/04/07 05:39:05;;;;;;;2.60;1.08;;;;;;;9.93;83.15;98630.00;5051229;28;20029;-74
2022/04/07 05:41:31;;;;;;;1.40;0.93;;;;;;;9.95;83.09;98612.16;5047501;28;20448;-72
2022/04/07 05:43:56;;;;;;;2.92;0.80;;;;;;;9.99;83.07;98623.97;5030356;28;20053;-72
2022/04/07 05:46:22;;;;;;;3.88;1.13;;;;;;;9.96;83.08;98626.97;5045232;28;20029;-72
2022/04/07 05:48:47;;;;;;;2.22;1.10;;;;;;;9.96;82.84;98619.88;5048810;28;20488;-72
2022/04/07 05:51:13;;;;;;;2.25;0.82;;;;;;;9.97;82.63;98604.84;5049758;28;20463;-72
2022/04/07 05:53:39;;;;;;;2.03;1.05;;;;;;;10.01;81.97;98608.75;5030796;28;20039;-71
2022/04/07 05:56:04;;;;;;;2.40;0.80;;;;;;;10.07;81.56;98610.59;5048172;28;20033;-71
2022/04/07 05:58:30;;;;;;;6.10;1.20;;;;;;;10.05;81.49;98602.03;5048752;28;20069;-72
2022/04/07 06:00:55;;;;;;;1.90;0.90;;;;;;;10.06;81.69;98602.84;5031865;28;20033;-73
2022/04/07 06:03:20;;;;;;;9.40;1.13;;;;;;;10.07;81.51;98600.03;5048993;28;20543;-73
2022/04/07 06:05:46;;;;;;;2.35;1.02;;;;;;;10.07;81.19;98599.22;5046742;28;20124;-72
2022/04/07 06:08:11;;;;;;;3.20;1.10;;;;;;;10.02;81.10;98586.59;5047632;28;20033;-72
2022/04/07 06:10:37;;;;;;;3.83;0.90;;;;;;;9.99;81.52;98582.53;5045706;28;20068;-73
2022/04/07 06:13:03;;;;;;;2.85;1.05;;;;;;;9.92;81.65;98586.97;5045978;28;20033;-74
2022/04/07 06:15:30;;;;;;;3.25;0.85;;;;;;;9.71;82.30;98579.94;5029034;28;20044;-73
2022/04/07 06:17:55;;;;;;;1.50;0.90;;;;;;;9.58;83.59;98590.38;5047530;28;20029;-73
2022/04/07 06:20:21;;;;;;;1.90;0.80;;;;;;;9.61;83.51;98576.03;5031078;28;20059;-73
2022/04/07 06:22:46;;;;;;;3.63;1.13;;;;;;;9.56;84.02;98566.84;5047139;28;20493;-73
2022/04/07 06:25:13;;;;;;;2.45;1.30;;;;;;;9.55;83.89;98562.56;5043935;28;20041;-73
2022/04/07 06:27:42;;;;;;;3.53;0.90;;;;;;;9.49;84.39;98555.44;5045040;28;20057;-73
2022/04/07 06:30:12;;;;;;;1.67;0.75;;;;;;;9.45;84.88;98551.56;5048057;28;20497;-73
2022/04/07 06:32:38;;;;;;;1.83;0.90;;;;;;;9.49;84.69;98539.63;5041957;28;20052;-73
2022/04/07 06:35:05;;;;;;;2.60;0.90;;;;;;;9.55;84.40;98544.09;5046258;28;20493;-73
2022/04/07 06:37:31;;;;;;;1.40;0.82;;;;;;;9.57;83.93;98536.81;5040649;28;20440;-73
2022/04/07 06:40:03;;;;;;;1.77;1.00;;;;;;;9.65;83.79;98537.66;5045487;28;20026;-73
2022/04/07 06:42:29;;;;;;;8.43;1.75;;;;;;;9.76;83.17;98521.28;5043888;28;20529;-72
2022/04/07 06:44:57;;;;;;;1.33;0.82;;;;;;;9.84;82.81;98505.25;5047032;28;20043;-73
2022/04/07 06:47:23;;;;;;;1.35;0.70;;;;;;;9.89;82.25;98520.50;5046360;28;20037;-73
2022/04/07 06:49:50;;;;;;;3.92;1.25;;;;;;;9.91;82.02;98521.13;5048975;28;20506;-73
2022/04/07 06:52:15;;;;;;;2.28;0.90;;;;;;;9.95;82.16;98501.25;5046350;28;20044;-73
2022/04/07 06:54:40;;;;;;;3.63;1.08;;;;;;;9.95;81.92;98502.06;5045409;28;20078;-73
2022/04/07 06:57:06;;;;;;;3.15;0.80;;;;;;;9.91;81.95;98494.75;5046647;28;20130;-73
2022/04/07 06:59:31;;;;;;;2.17;0.77;;;;;;;9.88;82.05;98503.88;5048519;28;20076;-72
2022/04/07 07:01:56;;;;;;;2.35;0.80;;;;;;;9.78;82.12;98506.88;5028123;28;20041;-72
2022/04/07 07:04:22;;;;;;;1.13;0.80;;;;;;;9.67;83.19;98499.50;5045320;28;20485;-72
2022/04/07 07:06:47;;;;;;;1.83;0.85;;;;;;;9.57;83.80;98491.94;5045996;28;20152;-73
2022/04/07 07:09:12;;;;;;;6.05;1.20;;;;;;;9.53;84.15;98501.28;5046900;28;20530;-72
2022/04/07 07:11:37;;;;;;;1.23;0.88;;;;;;;9.64;84.22;98496.47;5047253;28;20090;-73
2022/04/07 07:14:03;;;;;;;5.07;1.13;;;;;;;9.80;83.56;98496.13;5045863;28;20425;-72
2022/04/07 07:16:28;;;;;;;3.13;0.85;;;;;;;9.87;83.24;98480.31;5043667;28;20055;-73
2022/04/07 07:18:53;;;;;;;1.40;0.90;;;;;;;9.93;83.00;98472.41;5046398;28;20039;-73
2022/04/07 07:21:19;;;;;;;2.10;0.95;;;;;;;9.93;82.83;98472.41;5047134;28;20135;-73
2022/04/07 07:23:44;;;;;;;2.45;0.95;;;;;;;9.89;82.96;98467.72;5045788;28;20492;-73
2022/04/07 07:26:11;;;;;;;2.28;0.90;;;;;;;9.86;83.25;98452.28;5045585;28;20135;-73
2022/04/07 07:28:36;;;;;;;3.65;1.27;;;;;;;9.87;83.47;98448.66;5043748;28;20049;-72
2022/04/07 07:31:02;;;;;;;1.48;0.88;;;;;;;9.78;84.34;98440.09;5046195;28;20462;-72
2022/04/07 07:33:27;;;;;;;1.35;0.80;;;;;;;9.74;84.36;98441.47;5048003;28;20604;-72
2022/04/07 07:35:53;;;;;;;1.17;0.70;;;;;;;9.65;84.89;98429.47;5045998;28;20044;-73
2022/04/07 07:38:18;;;;;;;1.92;0.88;;;;;;;9.77;84.66;98426.06;5047275;28;20033;-73
2022/04/07 07:40:43;;;;;;;2.30;0.80;;;;;;;9.74;84.76;98420.38;5044786;28;20493;-73
2022/04/07 07:43:09;;;;;;;1.35;0.70;;;;;;;9.55;85.71;98416.63;5046694;28;20036;-73
2022/04/07 07:45:35;;;;;;;2.03;0.90;;;;;;;9.46;86.62;98402.81;5047806;28;20043;-73
2022/04/07 07:48:00;;;;;;;3.28;0.95;;;;;;;9.33;87.36;98414.13;5046266;28;20040;-72
2022/04/07 07:50:26;;;;;;;1.88;0.93;;;;;;;9.28;88.07;98413.09;5044620;28;20052;-73
2022/04/07 07:52:52;;;;;;;6.22;1.25;;;;;;;9.27;88.42;98414.91;5045159;28;20037;-72
2022/04/07 07:55:18;;;;;;;1.67;0.77;;;;;;;9.29;88.44;98409.44;5046896;28;20525;-72
2022/04/07 07:57:43;;;;;;;2.45;0.80;;;;;;;9.27;88.73;98406.16;5044328;28;20112;-72
2022/04/07 08:00:10;;;;;;;3.22;0.70;;;;;;;9.29;88.94;98396.25;5046714;28;20032;-73
2022/04/07 08:02:37;;;;;;;2.28;0.90;;;;;;;9.34;88.55;98402.56;5043930;28;20188;-72
2022/04/07 08:05:03;;;;;;;9.07;1.10;;;;;;;9.30;88.93;98393.41;5045739;28;20521;-73
2022/04/07 08:07:29;;;;;;;2.00;0.75;;;;;;;9.31;88.97;98396.84;5046268;28;20566;-74
2022/04/07 08:09:58;;;;;;;5.80;0.93;;;;;;;9.34;88.77;98378.84;5045650;28;20120;-72
2022/04/07 08:12:24;;;;;;;6.35;1.13;;;;;;;9.38;88.73;98381.06;5044095;28;20458;-72
2022/04/07 08:14:50;;;;;;;8.07;0.75;;;;;;;9.40;88.96;98386.97;5027571;28;20041;-73
2022/04/07 08:17:17;;;;;;;2.55;0.70;;;;;;;9.43;88.63;98389.19;5045120;28;20074;-73
2022/04/07 08:19:42;;;;;;;11.95;1.20;;;;;;;9.49;88.23;98368.13;5044517;28;20044;-73
2022/04/07 08:22:07;;;;;;;7.68;0.88;;;;;;;9.53;88.40;98360.63;5045861;28;20039;-72
2022/04/07 08:24:34;;;;;;;2.65;0.85;;;;;;;9.55;88.48;98355.97;5046439;28;20035;-72
2022/04/07 08:27:00;;;;;;;27.95;1.65;;;;;;;9.55;89.02;98354.13;5027295;28;20039;-72
2022/04/07 08:29:26;;;;;;;6.07;1.17;;;;;;;9.54;89.33;98346.44;5046364;28;20056;-72
2022/04/07 08:31:52;;;;;;;5.63;1.00;;;;;;;9.52;89.41;98340.53;5044296;28;20417;-72
2022/04/07 08:34:21;;;;;;;2.70;0.98;;;;;;;9.49;89.79;98336.47;5047504;28;20017;-73
2022/04/07 08:36:46;;;;;;;1.98;0.95;;;;;;;9.50;89.38;98334.63;5044723;28;20040;-72
2022/04/07 08:39:12;;;;;;;3.15;0.80;;;;;;;9.54;89.76;98343.78;5046481;28;20437;-72
2022/04/07 08:41:39;;;;;;;2.67;0.75;;;;;;;9.54;89.75;98330.59;5047592;28;20044;-72
2022/04/07 08:44:04;;;;;;;1.38;0.77;;;;;;;9.61;89.56;98330.63;5042773;28;20053;-72
2022/04/07 08:46:31;;;;;;;2.17;0.85;;;;;;;9.66;89.31;98325.56;5046310;28;20064;-72
2022/04/07 08:48:58;;;;;;;1.30;0.80;;;;;;;9.72;89.09;98324.75;5048473;28;20091;-73
2022/04/07 08:51:27;;;;;;;0.90;0.73;;;;;;;9.77;89.26;98328.41;5047154;28;20037;-73
2022/04/07 08:53:53;;;;;;;1.25;0.73;;;;;;;9.80;89.13;98308.72;5047535;28;20123;-73
2022/04/07 08:56:18;;;;;;;1.48;0.80;;;;;;;9.81;89.15;98325.38;5046421;28;20502;-72
2022/04/07 08:58:44;;;;;;;2.22;0.80;;;;;;;9.85;89.44;98308.94;5044471;28;20463;-73
2022/04/07 09:01:09;;;;;;;1.55;0.80;;;;;;;9.94;88.82;98315.66;5029780;28;20442;-73
2022/04/07 09:03:34;;;;;;;1.73;0.80;;;;;;;10.03;88.68;98310.16;5046506;28;20090;-73
2022/04/07 09:06:02;;;;;;;3.95;0.90;;;;;;;10.12;88.48;98291.25;5045953;28;20055;-73
2022/04/07 09:08:29;;;;;;;2.47;0.80;;;;;;;10.20;88.35;98292.88;5046386;28;20060;-73
2022/04/07 09:10:55;;;;;;;2.05;0.90;;;;;;;10.23;87.46;98308.34;5046141;28;20410;-71
2022/04/07 09:13:20;;;;;;;4.43;0.90;;;;;;;10.40;86.35;98296.34;5045178;28;20044;-72
2022/04/07 09:15:48;;;;;;;2.15;0.90;;;;;;;10.63;85.37;98293.28;5046333;28;20041;-73
2022/04/07 09:18:21;;;;;;;1.00;0.60;;;;;;;10.75;84.20;98311.97;5046422;28;20033;-73
2022/04/07 09:20:46;;;;;;;5.22;0.93;;;;;;;10.96;83.65;98296.81;5046007;28;20041;-74
2022/04/07 09:23:12;;;;;;;2.13;0.80;;;;;;;11.02;82.93;98299.44;5047564;28;20090;-73
2022/04/07 09:25:44;;;;;;;4.18;1.42;;;;;;;11.09;82.77;98291.50;5045379;28;20033;-74
2022/04/07 09:28:11;;;;;;;3.08;0.90;;;;;;;11.11;82.83;98293.91;5046038;28;20037;-73
2022/04/07 09:30:37;;;;;;;1.92;0.85;;;;;;;10.92;82.82;98229.53;5046794;28;20033;-73
2022/04/07 09:33:03;;;;;;;4.65;0.98;;;;;;;10.93;82.79;98253.09;5045638;28;20378;-73
2022/04/07 09:35:28;;;;;;;1.58;0.73;;;;;;;11.04;82.34;98257.75;5045914;28;20048;-73
2022/04/07 09:38:01;;;;;;;1.60;0.90;;;;;;;11.15;81.58;98252.81;5029836;28;20037;-73
2022/04/07 09:40:26;;;;;;;1.65;0.70;;;;;;;11.16;81.51;98249.97;5046990;28;20098;-73
2022/04/07 09:42:58;;;;;;;2.10;0.80;;;;;;;11.20;81.55;98245.03;5061971;28;20443;-73
2022/04/07 09:45:24;;;;;;;2.42;0.75;;;;;;;11.24;81.50;98255.00;5045591;28;20179;-73
2022/04/07 09:47:50;;;;;;;4.32;1.00;;;;;;;11.35;81.27;98237.66;5048629;28;20048;-72
2022/04/07 09:50:29;;;;;;;3.28;0.82;;;;;;;11.44;80.50;98235.53;5046656;28;20038;-73
2022/04/07 09:52:57;;;;;;;1.80;0.98;;;;;;;11.47;79.98;98243.06;5047352;28;20041;-73
2022/04/07 09:55:29;;;;;;;3.60;0.80;;;;;;;11.43;80.30;98220.69;5050765;28;20033;-72
2022/04/07 09:57:55;;;;;;;2.60;0.85;;;;;;;11.41;80.23;98242.06;5049323;28;20041;-73
2022/04/07 10:00:21;;;;;;;2.42;0.60;;;;;;;11.33;80.54;98228.31;5045596;28;20097;-74
2022/04/07 10:02:47;;;;;;;1.52;0.88;;;;;;;11.32;81.29;98226.66;5047127;28;20048;-73
2022/04/07 10:05:13;;;;;;;1.70;0.88;;;;;;;11.29;81.22;98214.69;5041215;28;20057;-73
2022/04/07 10:07:41;;;;;;;1.60;0.82;;;;;;;11.22;81.57;98216.53;5048129;28;20064;-73
2022/04/07 10:10:07;;;;;;;1.35;0.57;;;;;;;11.07;82.42;98208.09;5046363;28;20025;-72
2022/04/07 10:12:33;;;;;;;0.95;0.60;;;;;;;10.78;84.27;98205.78;5048060;28;20075;-72
2022/04/07 10:14:59;;;;;;;2.67;0.70;;;;;;;10.61;85.37;98207.28;5044615;28;20529;-72
2022/04/07 10:17:24;;;;;;;0.80;0.50;;;;;;;10.55;86.41;98189.63;5046339;28;20170;-73
2022/04/07 10:20:05;;;;;;;0.77;0.50;;;;;;;10.55;86.68;98186.97;5043476;28;20478;-73
2022/04/07 10:22:51;;;;;;;1.15;0.70;;;;;;;10.61;86.53;98188.78;5047980;28;20555;-72
2022/04/07 10:25:18;;;;;;;2.88;0.88;;;;;;;10.66;86.69;98167.84;5048647;28;20075;-72
2022/04/07 10:27:48;;;;;;;1.60;0.75;;;;;;;10.66;86.90;98173.13;5047884;28;20039;-73
2022/04/07 10:30:16;;;;;;;1.90;0.60;;;;;;;10.67;86.95;98156.22;5045773;28;20120;-73
2022/04/07 10:32:42;;;;;;;1.75;0.70;;;;;;;10.71;87.45;98138.94;5046375;28;20576;-73
2022/04/07 10:35:08;;;;;;;1.75;0.80;;;;;;;10.91;86.29;98141.44;5045444;28;20043;-73
2022/04/07 10:37:47;;;;;;;0.93;0.60;;;;;;;11.25;84.73;98134.13;5046874;28;20040;-73
2022/04/07 10:40:34;;;;;;;1.63;0.70;;;;;;;11.50;83.68;98128.84;5047142;28;20506;-73
2022/04/07 10:43:29;;;;;;;2.28;0.70;;;;;;;11.65;82.97;98123.19;5044512;28;20055;-74
2022/04/07 10:46:30;;;;;;;0.88;0.57;;;;;;;11.59;82.61;98116.16;5033797;28;20032;-73
2022/04/07 10:49:06;;;;;;;2.33;0.70;;;;;;;11.69;82.58;98117.25;4947277;28;20035;-73
2022/04/07 10:51:51;;;;;;;2.70;0.80;;;;;;;11.87;80.97;98108.56;5035431;28;20505;-73
2022/04/07 10:54:17;;;;;;;1.42;0.60;;;;;;;11.89;80.59;98100.38;5046954;28;20516;-73
2022/04/07 10:56:48;;;;;;;4.38;0.80;;;;;;;11.92;80.21;98118.50;5045578;28;20108;-73
2022/04/07 10:59:22;;;;;;;3.33;0.70;;;;;;;11.96;80.45;98102.97;5044212;28;20135;-73
2022/04/07 11:01:53;;;;;;;3.95;0.70;;;;;;;11.97;80.89;98121.31;5041852;28;20080;-72
2022/04/07 11:07:02;;;;;;;2.63;0.63;;;;;;;12.00;80.87;98109.47;5047111;28;20094;-73
2022/04/07 11:09:45;;;;;;;2.17;0.70;;;;;;;11.95;80.70;98094.22;5045275;28;20275;-72
2022/04/07 11:12:15;;;;;;;0.50;0.50;;;;;;;11.97;80.84;98078.94;5042957;28;20080;-73
2022/04/07 11:14:42;;;;;;;2.08;0.60;;;;;;;11.98;80.99;98077.88;5044058;28;20040;-73
2022/04/07 11:17:09;;;;;;;0.70;0.50;;;;;;;11.96;81.18;98065.91;5045772;28;20045;-72
2022/04/07 11:20:16;;;;;;;4.47;0.82;;;;;;;11.92;81.11;98076.13;5047774;28;20033;-73
2022/04/07 11:22:56;;;;;;;1.75;0.50;;;;;;;11.90;80.96;98078.19;4946373;28;20039;-73
2022/04/07 11:25:32;;;;;;;3.67;0.80;;;;;;;11.87;81.64;98068.06;5041614;28;20041;-72
2022/04/07 11:28:11;;;;;;;2.08;0.60;;;;;;;11.79;82.54;98055.06;5045214;28;20051;-72
2022/04/07 11:30:50;;;;;;;2.08;0.60;;;;;;;11.83;81.99;98064.19;5046667;28;20052;-72
2022/04/07 11:33:27;;;;;;;0.90;0.60;;;;;;;11.92;81.75;98065.53;5027594;28;20512;-73
2022/04/07 11:35:59;;;;;;;1.05;0.77;;;;;;;11.98;81.53;98046.09;5044811;28;20048;-73
2022/04/07 11:38:35;;;;;;;1.70;0.70;;;;;;;12.06;80.92;98037.88;5043588;28;20044;-72
2022/04/07 11:41:10;;;;;;;0.55;0.55;;;;;;;12.15;80.62;98033.06;5046207;28;20029;-73